Cleveland, Ohio
Traffic Map
Current Weather Conditions
Cleveland, Ohio
Overcast
Overcast
32°
Feels Like: 26°
Wind Chill: 26° Ceiling: 2200
Heat Index: 32° Visibility: 10mi
Dew Point: 24° Wind: 6mph
Humidity: 73% Direction: 30° (NNE)
Pressure: 30.2in Gusts: 0mph
Raw Report DataKBKL 101053Z AUTO 03005KT 10SM OVC022 00/M04 A3020 RMK AO2 SLP234 T00001044
Traffic Incident Summary
Active as of:
Severity:
Category:
InformationThere was an issue retrieving the traffic information for this location. Please try a different location or try again shortly.
Advertisements